Aérodrome :
LOGIN :

S'inscrire | Disclaimer

   EN    FR    IT 

 










Légende :    VFR   VFR Marginal   IFR   IFR Intensif   IFR Très Intensif
Visi : 
Plafond : 
>= 8 km
>= 3000ft
5 à 8 km
1000 à 3000 ft
1500m à 5 km
500 à 1000 ft
800 à 1500m
200 à 500 ft
< 800m
< 200 ft
Symboles :   Orages  Brouillard  Fortes neiges  Fortes précipitations  Vent > 20 kt
SIGMETs :   Divers  Orages  Givrage  Turbulence  Onde Orograph.  Cendres Volcan.







- Altitude de l'aérodrome : 587 ft
- Code IATA : XCR
- Voir les cartes d'approche


LFOK - Chalons Vatry

DERNIER METAR :
  • 220000Z AUTO 00000KT CAVOK 15/11 Q1011 TEMPO 3000 SHRA BKN040CB

METARs EXPIRÉS :
  • 212330Z AUTO 30003KT CAVOK 16/11 Q1011 TEMPO 3000 SHRA BKN040CB
  • 212300Z AUTO 30005KT CAVOK 15/11 Q1011 NOSIG
  • 212230Z AUTO 27004KT CAVOK 15/12 Q1011 NOSIG
  • 212200Z AUTO 21002KT CAVOK 15/12 Q1012 NOSIG
  • 212130Z AUTO 13002KT CAVOK 16/11 Q1012 NOSIG

TAF TAF LFOK
Valide du 22 à 00h jusqu'au 23 à 00h UTC


212300Z 2200/2224 VRB02KT CAVOK
TEMPO 2201/2205 3000 SHRA BKN040CB
TEMPO 2212/2218 3000 SHRA BKN040CB
PROB30
TEMPO 2212/2218 TSRA
Pas de NOTAMs connus pour ce terrain.



MET'MAP, la Météo Aéronautique d'un coup d'oeil ! - Copyright ORBIFLY Décembre 2007 - Disclaimer

ORBIFLY MET'MAP TEAM :

Programmation & Développement : Alexandra Zaïnal
Conception & Développement : Baudouin d'Aumeries
Co-Programmation & Développement : Marc-Olivier Méhu
Soutien technique & logistique : Manuel Goepfert

Contact : metmap@orbifly.com




SOURCES & CREDITS :

   NOAA